Puropanmaru No.3 — JD3322 — position and weather

sailwx.info

Track history (hours):
 
Tides and Currents Weather Stations Pressure Air Temp Water Temp Dewpoint Dewpoint Depression Visibility Wind Speed Wind Dir Waves Ship Positions

Puropanmaru No.3

Last reported at 2017-Sep-21 12:07 UTC. Time now 2017-Sep-22 04:50 UTC.
Position N 34°06' E 134°59'.

Length 68 m; draft 4.2 m.

Type: Tanker. MMSI: 431003365.

Date/timePositionNaut miles runAvg speedWind from/ knotsBaromVisibWave heightAir tempDewpointWater temp
2017-Sep-21 12:07N 34°06' E 134°59'112.8
2017-Sep-21 12:00N 34°08' E 134°59'1812.2
2017-Sep-21 10:31N 34°26' E 135°00'012.5
2017-Sep-21 10:29N 34°26' E 135°01'611.9
2017-Sep-21 10:00N 34°32' E 135°02'5 9.6
2017-Sep-21 09:30N 34°37' E 135°01'218 4.7
2017-Sep-19 10:57N 34°60' E 139°25'511.8
2017-Sep-19 10:30N 35°03' E 139°31'612.1
2017-Sep-19 10:00N 35°05' E 139°38'611.4
2017-Sep-19 09:30N 35°08' E 139°43'612.1
2017-Sep-19 09:00N 35°14' E 139°46'612.7
2017-Sep-19 08:30N 35°20' E 139°43'612.1
2017-Sep-19 08:01N 35°25' E 139°45'712.9
2017-Sep-19 07:30N 35°29' E 139°51'612.8
2017-Sep-19 07:00N 35°32' E 139°58'3 0.5
2017-Sep-19 01:17N 35°30' E 139°56'2 8.1
2017-Sep-19 01:00N 35°29' E 139°54'0 0.0
2017-Sep-19 00:30N 35°29' E 139°54'0 0.0
2017-Sep-19 00:00N 35°29' E 139°54'0 0.0
2017-Sep-18 23:30N 35°29' E 139°54'0 0.0
2017-Sep-18 22:57N 35°29' E 139°54'0 0.0
2017-Sep-18 22:30N 35°29' E 139°54'0 0.0
2017-Sep-18 21:57N 35°29' E 139°54'0 0.0
2017-Sep-18 21:27N 35°29' E 139°54'2 5.0
2017-Sep-18 21:00N 35°28' E 139°51'612.3
2017-Sep-18 20:30N 35°23' E 139°46'611.7
2017-Sep-18 20:00N 35°18' E 139°45'612.3
2017-Sep-18 19:30N 35°12' E 139°47'612.8
2017-Sep-18 19:00N 35°06' E 139°44'713.5
2017-Sep-18 18:30N 35°01' E 139°38'713.8
2017-Sep-18 18:00N 34°57' E 139°31'  
2017-Sep-13 06:31N 35°01' E 139°28'112.0
2017-Sep-13 06:25N 35°02' E 139°29'512.2
2017-Sep-13 06:00N 35°04' E 139°35'612.5
2017-Sep-13 05:30N 35°07' E 139°41'612.2
2017-Sep-13 05:00N 35°12' E 139°46'612.3
2017-Sep-13 04:30N 35°18' E 139°44'612.4
2017-Sep-13 04:00N 35°24' E 139°43'713.4
2017-Sep-13 03:30N 35°28' E 139°49'713.4
2017-Sep-13 03:00N 35°32' E 139°56'4 0.2
2017-Sep-12 05:48N 35°33' E 140°01'413.7
2017-Sep-12 05:30N 35°31' E 139°57'713.8
2017-Sep-12 05:00N 35°27' E 139°50'713.5
2017-Sep-12 04:30N 35°22' E 139°45'611.9
2017-Sep-12 04:00N 35°16' E 139°46'713.2
2017-Sep-12 03:30N 35°09' E 139°46'713.6
2017-Sep-12 03:00N 35°04' E 139°41'714.1
2017-Sep-12 02:29N 34°59' E 139°35'  
Track history (hours):
 
Tides and Currents Weather Stations Pressure Air Temp Water Temp Dewpoint Dewpoint Depression Visibility Wind Speed Wind Dir Waves Ship Positions

Puropanmaru No.3

Last reported at 2017-Sep-21 12:07 UTC. Time now 2017-Sep-22 04:50 UTC.
Position N 34°06' E 134°59'.

Length 68 m; draft 4.2 m.

Type: Tanker. MMSI: 431003365.

Date/timePositionNaut miles runAvg speedWind from/ knotsBaromVisibWave heightAir tempDewpointWater temp
2017-Sep-21 12:07N 34°06' E 134°59'112.8
2017-Sep-21 12:00N 34°08' E 134°59'1812.2
2017-Sep-21 10:31N 34°26' E 135°00'012.5
2017-Sep-21 10:29N 34°26' E 135°01'611.9
2017-Sep-21 10:00N 34°32' E 135°02'5 9.6
2017-Sep-21 09:30N 34°37' E 135°01'218 4.7
2017-Sep-19 10:57N 34°60' E 139°25'511.8
2017-Sep-19 10:30N 35°03' E 139°31'612.1
2017-Sep-19 10:00N 35°05' E 139°38'611.4
2017-Sep-19 09:30N 35°08' E 139°43'612.1
2017-Sep-19 09:00N 35°14' E 139°46'612.7
2017-Sep-19 08:30N 35°20' E 139°43'612.1
2017-Sep-19 08:01N 35°25' E 139°45'712.9
2017-Sep-19 07:30N 35°29' E 139°51'612.8
2017-Sep-19 07:00N 35°32' E 139°58'3 0.5
2017-Sep-19 01:17N 35°30' E 139°56'2 8.1
2017-Sep-19 01:00N 35°29' E 139°54'0 0.0
2017-Sep-19 00:30N 35°29' E 139°54'0 0.0
2017-Sep-19 00:00N 35°29' E 139°54'0 0.0
2017-Sep-18 23:30N 35°29' E 139°54'0 0.0
2017-Sep-18 22:57N 35°29' E 139°54'0 0.0
2017-Sep-18 22:30N 35°29' E 139°54'0 0.0
2017-Sep-18 21:57N 35°29' E 139°54'0 0.0
2017-Sep-18 21:27N 35°29' E 139°54'2 5.0
2017-Sep-18 21:00N 35°28' E 139°51'612.3
2017-Sep-18 20:30N 35°23' E 139°46'611.7
2017-Sep-18 20:00N 35°18' E 139°45'612.3
2017-Sep-18 19:30N 35°12' E 139°47'612.8
2017-Sep-18 19:00N 35°06' E 139°44'713.5
2017-Sep-18 18:30N 35°01' E 139°38'713.8
2017-Sep-18 18:00N 34°57' E 139°31'  
2017-Sep-13 06:31N 35°01' E 139°28'112.0
2017-Sep-13 06:25N 35°02' E 139°29'512.2
2017-Sep-13 06:00N 35°04' E 139°35'612.5
2017-Sep-13 05:30N 35°07' E 139°41'612.2
2017-Sep-13 05:00N 35°12' E 139°46'612.3
2017-Sep-13 04:30N 35°18' E 139°44'612.4
2017-Sep-13 04:00N 35°24' E 139°43'713.4
2017-Sep-13 03:30N 35°28' E 139°49'713.4
2017-Sep-13 03:00N 35°32' E 139°56'4 0.2
2017-Sep-12 05:48N 35°33' E 140°01'413.7
2017-Sep-12 05:30N 35°31' E 139°57'713.8
2017-Sep-12 05:00N 35°27' E 139°50'713.5
2017-Sep-12 04:30N 35°22' E 139°45'611.9
2017-Sep-12 04:00N 35°16' E 139°46'713.2
2017-Sep-12 03:30N 35°09' E 139°46'713.6
2017-Sep-12 03:00N 35°04' E 139°41'714.1
2017-Sep-12 02:29N 34°59' E 139°35'  

Dump ship's entire track history